Lamero, Kentucky
Current Conditions -  °F | °C
As of 9:53 PM on Monday 20 Oct 2014 (Local Time) from KLOZ Reporting Station
Clear Clear  
Wind Chill: 56°   Ceiling: Unl
Heat Index: 56°   Visibility: 10mi
Dew Point: 47°   Wind: 3mph
Humidity: 72%   Direction: 230°SW
Pressure: 30"   Gusts: NA
Location:  37.3287°N, 84.1623°W
Report Text: KLOZ 210153Z AUTO 23003KT 10SM CLR 13/08 A3000 RMK AO2 SLP155 T01330083
Loading
Personal Weather Stations






























Interactive Weather Map
Tropical Storm Tracking
New forecast layout! Learn more

10-Day Weather Forecast

Advertisements
Track Severe Weather on mobile